createdAt,value
2022-12-17T00:02:45.281Z,87.48
2022-12-17T00:05:34.103Z,87.46
2022-12-17T00:08:22.080Z,88.04
2022-12-17T00:11:11.127Z,87.48
2022-12-17T00:14:12.809Z,87.47
2022-12-17T00:17:00.447Z,87.62
2022-12-17T00:19:51.155Z,87.26
2022-12-17T00:22:42.080Z,87.50
2022-12-17T00:25:30.955Z,87.87
2022-12-17T00:28:18.130Z,87.53
2022-12-17T00:31:15.596Z,87.71
2022-12-17T00:34:03.163Z,87.60
2022-12-17T00:36:53.998Z,87.97
2022-12-17T00:39:45.683Z,88.18
2022-12-17T00:42:33.167Z,87.90
2022-12-17T00:45:23.038Z,87.97
2022-12-17T00:48:18.131Z,87.43
2022-12-17T00:51:05.738Z,87.56
2022-12-17T00:53:52.816Z,87.83
2022-12-17T00:56:42.047Z,88.19
2022-12-17T00:59:30.160Z,87.78
2022-12-17T01:02:18.708Z,88.06
2022-12-17T01:05:11.587Z,87.64
2022-12-17T01:08:00.212Z,87.96
2022-12-17T01:10:48.434Z,88.01
2022-12-17T01:13:40.510Z,87.55
2022-12-17T01:16:35.506Z,87.81
2022-12-17T01:19:22.559Z,88.37
2022-12-17T01:22:13.152Z,88.06
2022-12-17T01:25:01.985Z,87.59
2022-12-17T01:27:50.376Z,88.27
2022-12-17T01:30:39.154Z,88.24
2022-12-17T01:33:33.627Z,88.15
2022-12-17T01:36:23.286Z,88.07
2022-12-17T01:39:15.574Z,88.39
2022-12-17T01:42:02.540Z,88.34
2022-12-17T01:45:15.643Z,87.80
2022-12-17T01:48:08.381Z,88.46
2022-12-17T01:51:01.191Z,88.18
2022-12-17T01:54:04.459Z,88.21
2022-12-17T01:56:57.490Z,87.90
2022-12-17T01:59:56.712Z,88.08
2022-12-17T02:02:44.185Z,88.18
2022-12-17T02:05:33.806Z,87.64
2022-12-17T02:08:30.684Z,88.02
2022-12-17T02:11:47.153Z,88.03
2022-12-17T02:14:58.413Z,88.08
2022-12-17T02:17:57.635Z,87.96
2022-12-17T02:20:59.539Z,88.17
2022-12-17T02:24:12.312Z,88.13
2022-12-17T02:27:17.442Z,88.20
2022-12-17T02:30:09.795Z,88.05
2022-12-17T02:33:02.267Z,88.19
2022-12-17T02:35:56.180Z,87.79
2022-12-17T02:38:53.530Z,88.05
2022-12-17T02:41:49.425Z,88.04
2022-12-17T02:44:41.732Z,88.61
2022-12-17T02:47:36.669Z,88.16
2022-12-17T02:50:31.368Z,88.50
2022-12-17T02:53:24.136Z,88.26
2022-12-17T02:56:14.602Z,88.24
2022-12-17T02:59:16.203Z,88.42
2022-12-17T03:02:09.398Z,88.31
2022-12-17T03:05:27.669Z,87.94
2022-12-17T03:08:15.262Z,87.59
2022-12-17T03:11:05.340Z,87.96
2022-12-17T03:13:54.332Z,88.22
2022-12-17T03:16:44.349Z,88.00
2022-12-17T03:19:33.251Z,88.82
2022-12-17T03:22:22.021Z,88.40
2022-12-17T03:25:10.312Z,88.51
2022-12-17T03:27:59.805Z,88.35
2022-12-17T03:30:49.044Z,88.53
2022-12-17T03:33:43.567Z,88.78
2022-12-17T03:36:35.789Z,88.43
2022-12-17T03:39:24.874Z,88.08
2022-12-17T03:42:20.870Z,88.83
2022-12-17T03:45:10.192Z,88.31
2022-12-17T03:51:03.897Z,88.54
2022-12-17T03:53:53.250Z,88.39
2022-12-17T03:56:40.346Z,88.22
2022-12-17T03:59:29.220Z,88.62
2022-12-17T04:02:21.259Z,88.48
2022-12-17T04:05:24.841Z,87.81
2022-12-17T04:08:15.776Z,88.66
2022-12-17T04:11:05.624Z,88.55
2022-12-17T04:14:05.898Z,88.53
2022-12-17T04:17:00.109Z,88.31
2022-12-17T04:19:51.735Z,88.78
2022-12-17T04:22:41.184Z,88.17
2022-12-17T04:25:36.624Z,88.28
2022-12-17T04:28:27.585Z,88.52
2022-12-17T04:31:15.086Z,88.76
2022-12-17T04:34:02.088Z,88.66
2022-12-17T04:36:50.073Z,88.58
2022-12-17T04:39:41.851Z,88.79
2022-12-17T04:42:33.072Z,88.74
2022-12-17T04:45:40.326Z,88.06
2022-12-17T04:48:29.175Z,88.57
2022-12-17T04:51:21.212Z,88.08
2022-12-17T04:54:11.143Z,88.54
2022-12-17T04:56:58.224Z,88.18
2022-12-17T04:59:45.310Z,88.39
2022-12-17T05:02:42.838Z,88.56
2022-12-17T05:05:32.237Z,88.39
2022-12-17T05:08:21.783Z,88.79
2022-12-17T05:11:10.316Z,88.84
2022-12-17T05:14:14.963Z,88.76
2022-12-17T05:17:05.253Z,88.46
2022-12-17T05:19:58.309Z,88.60
2022-12-17T05:22:45.643Z,88.67
2022-12-17T05:25:35.528Z,88.50
2022-12-17T05:28:25.213Z,88.34
2022-12-17T05:31:15.981Z,88.74
2022-12-17T05:34:03.997Z,88.62
2022-12-17T05:36:58.615Z,88.86
2022-12-17T05:42:56.842Z,88.59
2022-12-17T05:45:47.860Z,88.97
2022-12-17T05:48:40.702Z,88.44
2022-12-17T05:51:35.795Z,88.74
2022-12-17T05:54:32.871Z,88.58
2022-12-17T05:57:23.532Z,88.71
2022-12-17T06:00:12.317Z,88.46
2022-12-17T06:03:05.025Z,88.89
2022-12-17T06:05:55.720Z,88.83
2022-12-17T06:08:47.472Z,88.88
2022-12-17T06:11:44.380Z,88.62
2022-12-17T06:15:05.088Z,89.05
2022-12-17T06:18:03.438Z,88.63
2022-12-17T06:20:54.711Z,88.74
2022-12-17T06:23:52.314Z,88.78
2022-12-17T06:26:54.492Z,88.68
2022-12-17T06:29:43.791Z,89.00
2022-12-17T06:32:33.424Z,88.19
2022-12-17T06:35:24.643Z,88.46
2022-12-17T06:38:20.279Z,88.43
2022-12-17T06:41:09.173Z,88.85
2022-12-17T06:43:59.915Z,88.75
2022-12-17T06:46:49.149Z,88.35
2022-12-17T06:49:39.293Z,88.68
2022-12-17T06:52:29.569Z,88.37
2022-12-17T06:55:21.157Z,88.36
2022-12-17T06:58:17.606Z,88.47
2022-12-17T07:01:11.193Z,88.56
2022-12-17T07:04:13.045Z,89.02
2022-12-17T07:07:01.661Z,88.90
2022-12-17T07:09:53.604Z,88.12
2022-12-17T07:12:42.902Z,88.36
2022-12-17T07:15:36.392Z,88.43
2022-12-17T07:18:33.547Z,88.37
2022-12-17T07:21:20.415Z,88.96
2022-12-17T07:24:07.457Z,88.70
2022-12-17T07:26:56.267Z,88.71
2022-12-17T07:29:48.253Z,88.57
2022-12-17T07:32:39.374Z,88.25
2022-12-17T07:35:38.509Z,88.46
2022-12-17T07:38:27.306Z,88.84
2022-12-17T07:41:17.291Z,88.40
2022-12-17T07:44:06.892Z,89.27
2022-12-17T07:46:55.995Z,88.65
2022-12-17T07:49:47.620Z,88.91
2022-12-17T07:52:40.386Z,88.32
2022-12-17T07:55:30.268Z,88.70
2022-12-17T07:58:24.249Z,88.79
2022-12-17T08:01:14.553Z,88.19
2022-12-17T08:04:10.413Z,88.36
2022-12-17T08:07:02.778Z,88.54
2022-12-17T08:09:58.563Z,88.48
2022-12-17T08:12:44.715Z,88.57
2022-12-17T08:15:30.870Z,88.56
2022-12-17T08:18:24.556Z,88.50
2022-12-17T08:21:12.540Z,88.42
2022-12-17T08:23:58.265Z,88.84
2022-12-17T08:26:48.207Z,88.44
2022-12-17T08:29:34.642Z,88.29
2022-12-17T08:32:20.483Z,88.56
2022-12-17T08:35:06.075Z,88.75
2022-12-17T08:37:51.733Z,88.68
2022-12-17T08:40:37.512Z,88.22
2022-12-17T08:43:25.057Z,88.53
2022-12-17T08:46:11.757Z,88.58
2022-12-17T08:48:57.905Z,88.78
2022-12-17T08:51:43.988Z,88.57
2022-12-17T08:54:29.740Z,88.47
2022-12-17T08:57:27.042Z,88.45
2022-12-17T09:00:18.798Z,88.73
2022-12-17T09:03:05.064Z,88.91
2022-12-17T09:05:51.119Z,88.91
2022-12-17T09:08:36.752Z,88.52
2022-12-17T09:11:31.139Z,88.54
2022-12-17T09:14:17.338Z,87.99
2022-12-17T09:17:04.317Z,88.47
2022-12-17T09:19:49.999Z,88.25
2022-12-17T09:22:36.164Z,88.72
2022-12-17T09:25:22.396Z,88.78
2022-12-17T09:28:08.647Z,88.36
2022-12-17T09:30:54.324Z,88.36
2022-12-17T09:33:41.129Z,88.27
2022-12-17T09:36:28.047Z,88.33
2022-12-17T09:39:13.655Z,88.45
2022-12-17T09:42:11.493Z,88.30
2022-12-17T09:45:07.399Z,88.16
2022-12-17T09:48:03.300Z,88.32
2022-12-17T09:50:50.063Z,88.20
2022-12-17T09:53:42.031Z,87.79
2022-12-17T09:56:30.945Z,88.19
2022-12-17T09:59:16.780Z,87.90
2022-12-17T10:02:03.124Z,88.11
2022-12-17T10:05:06.258Z,88.20
2022-12-17T10:07:55.635Z,88.01
2022-12-17T10:10:48.216Z,88.36
2022-12-17T10:13:37.056Z,88.06
2022-12-17T10:16:40.001Z,87.55
2022-12-17T10:19:33.622Z,87.51
2022-12-17T10:22:28.126Z,88.09
2022-12-17T10:25:15.395Z,88.01
2022-12-17T10:28:16.048Z,87.76
2022-12-17T10:31:02.316Z,87.89
2022-12-17T10:33:55.965Z,88.22
2022-12-17T10:36:44.033Z,88.00
2022-12-17T10:39:36.881Z,88.08
2022-12-17T10:42:40.634Z,88.12
2022-12-17T10:45:43.081Z,87.54
2022-12-17T10:48:41.076Z,87.69
2022-12-17T10:51:44.091Z,88.11
2022-12-17T10:54:45.386Z,87.88
2022-12-17T10:57:45.484Z,88.09
2022-12-17T11:00:49.808Z,87.84
2022-12-17T11:03:49.974Z,87.71
2022-12-17T11:06:57.038Z,87.70
2022-12-17T11:10:03.811Z,87.59
2022-12-17T11:13:01.031Z,87.60
2022-12-17T11:15:55.017Z,88.29
2022-12-17T11:18:47.427Z,87.59
2022-12-17T11:21:40.214Z,87.14
2022-12-17T11:24:33.069Z,87.73
2022-12-17T11:27:23.087Z,87.96
2022-12-17T11:30:10.527Z,87.84
2022-12-17T11:33:22.178Z,87.45
2022-12-17T11:36:17.302Z,87.52
2022-12-17T11:39:14.410Z,87.66
2022-12-17T11:42:12.242Z,87.18
2022-12-17T11:45:12.846Z,87.42
2022-12-17T11:48:06.277Z,87.16
2022-12-17T11:51:02.171Z,87.71
2022-12-17T11:54:08.414Z,87.31
2022-12-17T11:56:59.160Z,87.76
2022-12-17T11:59:53.420Z,87.02
2022-12-17T12:03:02.438Z,87.42
2022-12-17T12:06:02.253Z,86.85
2022-12-17T12:08:51.836Z,87.09
2022-12-17T12:11:49.274Z,86.74
2022-12-17T12:14:51.109Z,86.99
2022-12-17T12:17:56.901Z,87.15
2022-12-17T12:21:19.871Z,87.28
2022-12-17T12:24:21.989Z,86.56
2022-12-17T12:27:22.636Z,86.95
2022-12-17T12:30:19.869Z,87.19
2022-12-17T12:33:16.926Z,86.86
2022-12-17T12:36:03.296Z,86.54
2022-12-17T12:38:58.698Z,86.87
2022-12-17T12:42:05.703Z,87.07
2022-12-17T12:45:03.587Z,87.40
2022-12-17T12:48:02.253Z,87.11
2022-12-17T12:51:01.385Z,86.96
2022-12-17T12:53:46.881Z,87.10
2022-12-17T12:56:48.339Z,87.31
2022-12-17T12:59:46.081Z,86.96
2022-12-17T13:02:44.503Z,86.51
2022-12-17T13:05:35.801Z,86.00
2022-12-17T13:08:21.558Z,86.35
2022-12-17T13:10:51.674Z,87.26
2022-12-17T13:13:33.709Z,86.76
2022-12-17T13:16:18.668Z,86.33
2022-12-17T13:18:47.070Z,86.60
2022-12-17T13:21:29.673Z,86.34
2022-12-17T13:24:01.410Z,86.67
2022-12-17T13:26:44.612Z,86.22
2022-12-17T13:29:24.147Z,86.20
2022-12-17T13:32:17.302Z,86.69
2022-12-17T13:35:04.428Z,86.18
2022-12-17T13:37:44.906Z,85.63
2022-12-17T13:40:31.560Z,85.89
2022-12-17T13:43:00.100Z,85.77
2022-12-17T13:45:28.929Z,85.62
2022-12-17T13:48:00.318Z,86.44
2022-12-17T13:50:34.351Z,85.88
2022-12-17T13:53:11.363Z,86.53
2022-12-17T13:55:41.512Z,86.42
2022-12-17T13:58:24.022Z,85.99
2022-12-17T14:00:52.530Z,85.95
2022-12-17T14:03:43.166Z,85.91
2022-12-17T14:06:13.163Z,85.47
2022-12-17T14:08:42.338Z,85.73
2022-12-17T14:11:31.325Z,86.54
2022-12-17T14:13:59.883Z,85.71
2022-12-17T14:16:28.525Z,86.00
2022-12-17T14:18:59.659Z,85.95
2022-12-17T14:21:29.592Z,85.67
2022-12-17T14:23:58.931Z,85.71
2022-12-17T14:26:28.665Z,85.74
2022-12-17T14:28:57.183Z,85.04
2022-12-17T14:31:29.466Z,85.45
2022-12-17T14:34:07.841Z,85.69
2022-12-17T14:36:39.347Z,85.67
2022-12-17T14:39:19.404Z,85.59
2022-12-17T14:42:07.180Z,85.62
2022-12-17T14:44:35.879Z,85.82
2022-12-17T14:47:17.299Z,85.81
2022-12-17T14:49:56.893Z,85.98
2022-12-17T14:52:36.497Z,85.94
2022-12-17T14:55:24.051Z,86.02
2022-12-17T14:57:55.499Z,85.40
2022-12-17T15:00:23.775Z,85.55
2022-12-17T15:02:55.909Z,85.69
2022-12-17T15:05:24.443Z,85.78
2022-12-17T15:07:52.854Z,85.43
2022-12-17T15:10:23.061Z,85.77
2022-12-17T15:12:52.980Z,86.13
2022-12-17T15:15:22.667Z,85.69
2022-12-17T15:17:50.914Z,85.61
2022-12-17T15:20:21.606Z,85.62
2022-12-17T15:22:49.888Z,85.75
2022-12-17T15:25:20.552Z,85.46
2022-12-17T15:27:48.819Z,86.16
2022-12-17T15:30:19.097Z,85.42
2022-12-17T15:32:48.836Z,85.63
2022-12-17T15:35:17.128Z,85.96
2022-12-17T15:37:45.319Z,85.36
2022-12-17T15:40:14.073Z,85.36
2022-12-17T15:43:04.696Z,85.84
2022-12-17T15:45:34.576Z,85.51
2022-12-17T15:48:04.355Z,86.02
2022-12-17T15:50:32.957Z,85.56
2022-12-17T15:53:01.318Z,85.49
2022-12-17T15:55:31.285Z,85.85
2022-12-17T15:58:00.867Z,85.30
2022-12-17T16:00:29.856Z,85.57
2022-12-17T16:02:59.312Z,85.41
2022-12-17T16:05:29.251Z,85.41
2022-12-17T16:08:02.130Z,85.54
2022-12-17T16:10:31.352Z,85.60
2022-12-17T16:12:59.703Z,85.59
2022-12-17T16:15:28.328Z,85.55
2022-12-17T16:17:57.637Z,85.74
2022-12-17T16:20:26.078Z,85.57
2022-12-17T16:22:55.696Z,85.43
2022-12-17T16:25:23.978Z,85.63
2022-12-17T16:27:52.203Z,85.82
2022-12-17T16:30:20.949Z,85.69
2022-12-17T16:32:49.215Z,85.64
2022-12-17T16:35:17.687Z,85.42
2022-12-17T16:37:45.897Z,85.74
2022-12-17T16:40:16.052Z,85.63
2022-12-17T16:42:44.296Z,85.61
2022-12-17T16:45:12.892Z,85.59
2022-12-17T16:47:41.117Z,85.74
2022-12-17T16:50:09.748Z,85.39
2022-12-17T16:52:37.924Z,85.79
2022-12-17T16:55:07.150Z,85.47
2022-12-17T16:57:36.737Z,85.66
2022-12-17T17:00:06.071Z,85.53
2022-12-17T17:02:34.486Z,85.57
2022-12-17T17:05:02.892Z,85.66
2022-12-17T17:07:31.292Z,85.68
2022-12-17T17:09:59.514Z,85.94
2022-12-17T17:12:27.781Z,86.21
2022-12-17T17:14:57.593Z,85.80
2022-12-17T17:17:54.997Z,85.70
2022-12-17T17:20:14.461Z,85.68
2022-12-17T17:22:42.984Z,85.54
2022-12-17T17:25:11.174Z,85.60
2022-12-17T17:27:39.481Z,85.98
2022-12-17T17:30:11.347Z,85.65
2022-12-17T17:32:39.586Z,85.99
2022-12-17T17:35:08.860Z,85.64
2022-12-17T17:37:37.102Z,85.85
2022-12-17T17:40:06.773Z,85.88
2022-12-17T17:42:35.028Z,85.83
2022-12-17T17:45:04.383Z,85.93
2022-12-17T17:47:34.000Z,85.79
2022-12-17T17:50:02.285Z,85.80
2022-12-17T17:52:30.523Z,85.60
2022-12-17T17:54:58.799Z,85.93
2022-12-17T17:57:27.163Z,85.63
2022-12-17T17:59:55.435Z,85.80
2022-12-17T18:02:23.851Z,85.87
2022-12-17T18:04:53.808Z,85.89
2022-12-17T18:07:25.532Z,86.06
2022-12-17T18:09:54.752Z,86.00
2022-12-17T18:12:41.061Z,85.88
2022-12-17T18:15:15.194Z,85.83
2022-12-17T18:17:45.119Z,86.16
2022-12-17T18:20:15.450Z,85.95
2022-12-17T18:22:46.149Z,85.94
2022-12-17T18:25:15.451Z,85.75
2022-12-17T18:27:43.649Z,86.37
2022-12-17T18:30:13.088Z,86.18
2022-12-17T18:32:41.399Z,86.10
2022-12-17T18:35:10.626Z,85.78
2022-12-17T18:37:40.411Z,86.34
2022-12-17T18:40:10.447Z,85.87
2022-12-17T18:42:56.451Z,85.97
2022-12-17T18:45:24.711Z,85.83
2022-12-17T18:47:52.968Z,85.96
2022-12-17T18:50:21.321Z,86.08
2022-12-17T18:52:50.936Z,85.87
2022-12-17T18:55:19.470Z,85.93
2022-12-17T18:57:47.726Z,86.03
2022-12-17T19:00:16.368Z,85.84
2022-12-17T19:02:45.299Z,86.27
2022-12-17T19:05:13.851Z,85.99
2022-12-17T19:07:42.095Z,85.90
2022-12-17T19:10:12.163Z,86.13
2022-12-17T19:12:40.900Z,86.23
2022-12-17T19:15:10.664Z,85.77
2022-12-17T19:17:38.955Z,85.78
2022-12-17T19:20:08.888Z,85.98
2022-12-17T19:22:37.230Z,86.47
2022-12-17T19:25:06.316Z,86.35
2022-12-17T19:27:36.079Z,86.13
2022-12-17T19:30:04.831Z,86.09
2022-12-17T19:32:33.092Z,86.39
2022-12-17T19:35:01.493Z,86.22
2022-12-17T19:37:29.713Z,86.32
2022-12-17T19:39:58.538Z,86.04
2022-12-17T19:42:30.646Z,86.14
2022-12-17T19:45:07.248Z,86.12
2022-12-17T19:47:35.445Z,86.13
2022-12-17T19:50:03.887Z,86.09
2022-12-17T19:52:32.135Z,86.26
2022-12-17T19:55:00.356Z,86.08
2022-12-17T19:57:28.604Z,86.23
2022-12-17T19:59:57.107Z,86.21
2022-12-17T20:02:32.216Z,86.27
2022-12-17T20:05:01.659Z,86.03
2022-12-17T20:07:29.952Z,86.09
2022-12-17T20:09:58.276Z,86.26
2022-12-17T20:12:26.585Z,86.33
2022-12-17T20:14:55.159Z,86.11
2022-12-17T20:17:24.699Z,86.67
2022-12-17T20:19:56.380Z,86.59
2022-12-17T20:22:26.399Z,86.56
2022-12-17T20:24:54.651Z,86.13
2022-12-17T20:27:23.027Z,85.99
2022-12-17T20:29:51.277Z,85.86
2022-12-17T20:32:21.315Z,85.85
2022-12-17T20:34:49.894Z,86.74
2022-12-17T20:37:19.662Z,86.24
2022-12-17T20:39:47.938Z,86.58
2022-12-17T20:42:17.907Z,86.29
2022-12-17T20:44:51.537Z,86.28
2022-12-17T20:47:21.709Z,86.27
2022-12-17T20:49:49.986Z,86.45
2022-12-17T20:52:19.682Z,86.05
2022-12-17T20:54:49.457Z,86.58
2022-12-17T20:57:17.890Z,86.28
2022-12-17T20:59:46.299Z,86.24
2022-12-17T21:02:14.870Z,86.56
2022-12-17T21:04:43.354Z,86.10
2022-12-17T21:07:11.609Z,86.27
2022-12-17T21:09:41.275Z,86.06
2022-12-17T21:12:12.363Z,86.77
2022-12-17T21:14:40.815Z,86.44
2022-12-17T21:17:09.129Z,86.15
2022-12-17T21:19:37.720Z,86.56
2022-12-17T21:22:07.163Z,86.10
2022-12-17T21:24:37.907Z,86.91
2022-12-17T21:27:14.299Z,86.70
2022-12-17T21:29:43.146Z,86.41
2022-12-17T21:32:11.332Z,86.40
2022-12-17T21:34:39.904Z,86.41
2022-12-17T21:37:09.471Z,85.91
2022-12-17T21:39:38.160Z,86.39
2022-12-17T21:42:25.108Z,85.95
2022-12-17T21:44:53.365Z,86.20
2022-12-17T21:47:22.075Z,86.29
2022-12-17T21:49:50.556Z,86.38
2022-12-17T21:52:18.783Z,86.58
2022-12-17T21:54:47.725Z,86.26
2022-12-17T21:57:17.565Z,86.54
2022-12-17T21:59:45.833Z,86.38
2022-12-17T22:02:14.254Z,86.12
2022-12-17T22:04:42.806Z,86.36
2022-12-17T22:07:12.158Z,86.05
2022-12-17T22:10:18.118Z,86.20
2022-12-17T22:12:49.770Z,86.73
2022-12-17T22:15:18.181Z,86.67
2022-12-17T22:17:47.572Z,85.93
2022-12-17T22:20:17.466Z,86.88
2022-12-17T22:22:46.275Z,86.31
2022-12-17T22:25:15.102Z,86.53
2022-12-17T22:27:44.840Z,86.34
2022-12-17T22:30:35.507Z,86.55
2022-12-17T22:33:30.088Z,86.61
2022-12-17T22:39:08.275Z,86.44
2022-12-17T22:42:01.981Z,86.27
2022-12-17T22:44:31.456Z,86.42
2022-12-17T22:44:53.303Z,86.03
2022-12-17T22:47:22.874Z,86.55
2022-12-17T22:49:51.215Z,86.20
2022-12-17T22:52:20.397Z,85.89
2022-12-17T22:54:49.115Z,86.14
2022-12-17T22:57:36.397Z,86.32
2022-12-17T23:00:14.895Z,86.10
2022-12-17T23:02:43.173Z,86.65
2022-12-17T23:05:11.512Z,86.16
2022-12-17T23:07:39.803Z,85.97
2022-12-17T23:10:10.373Z,86.42
2022-12-17T23:12:54.949Z,86.27
2022-12-17T23:15:30.092Z,86.35
2022-12-17T23:18:01.862Z,86.70
2022-12-17T23:20:32.930Z,86.65
2022-12-17T23:23:01.970Z,86.45
2022-12-17T23:25:30.645Z,86.47
2022-12-17T23:27:58.882Z,86.43
2022-12-17T23:30:28.639Z,85.93
2022-12-17T23:32:56.924Z,86.50
2022-12-17T23:35:25.135Z,86.35
2022-12-17T23:37:53.724Z,86.57
2022-12-17T23:40:22.627Z,86.65
2022-12-17T23:42:50.857Z,86.43
2022-12-17T23:45:19.118Z,86.55
2022-12-17T23:47:48.732Z,86.21
2022-12-17T23:50:17.039Z,86.19
2022-12-17T23:52:45.289Z,86.38
2022-12-17T23:55:13.845Z,86.55
2022-12-17T23:57:42.104Z,86.29
